Harrington, South Dakota
Current Conditions -  °F | °C
As of 11:52 PM on Saturday 22 Nov 2014 (Local Time) from KIEN Reporting Station
Overcast Overcast  
Wind Chill: 34°   Ceiling: 3800
Heat Index: 40°   Visibility: 10mi
Dew Point: 33°   Wind: 8mph
Humidity: 77%   Direction: 340°NNW
Pressure: 29.53"   Gusts: NA
Location:  43.2013°N, 101.679°W
Report Text: KIEN 230652Z AUTO 34007KT 10SM OVC038 04/01 A2953 RMK AO2 SLP000 T00440006 401221094
Loading
Personal Weather Stations






























Interactive Weather Map New forecast layout! Learn more

10-Day Weather Forecast

Advertisements
Track Severe Weather on mobile